createdAt,value
2022-08-17T00:01:30.135Z,20.43
2022-08-17T00:06:01.472Z,20.42
2022-08-17T00:10:03.714Z,20.42
2022-08-17T00:14:09.876Z,20.43
2022-08-17T00:19:01.551Z,20.41
2022-08-17T00:22:36.663Z,20.39
2022-08-17T00:26:45.124Z,20.36
2022-08-17T00:30:52.850Z,20.12
2022-08-17T00:34:56.680Z,20.02
2022-08-17T00:38:58.994Z,19.98
2022-08-17T00:43:13.169Z,19.98
2022-08-17T00:47:15.205Z,19.98
2022-08-17T00:51:38.531Z,20.06
2022-08-17T00:55:40.687Z,19.89
2022-08-17T01:00:02.354Z,19.90
2022-08-17T01:04:06.369Z,19.83
2022-08-17T01:08:13.190Z,19.93
2022-08-17T01:12:15.371Z,19.95
2022-08-17T01:16:27.739Z,19.97
2022-08-17T01:20:29.852Z,19.93
2022-08-17T01:24:53.539Z,19.98
2022-08-17T01:28:56.378Z,19.96
2022-08-17T01:32:58.489Z,19.94
2022-08-17T01:37:01.072Z,19.86
2022-08-17T01:41:09.530Z,19.80
2022-08-17T01:45:20.388Z,19.78
2022-08-17T01:49:22.613Z,19.79
2022-08-17T01:53:32.595Z,19.79
2022-08-17T01:57:34.903Z,19.67
2022-08-17T02:01:38.014Z,19.35
2022-08-17T02:05:40.949Z,19.26
2022-08-17T02:09:44.066Z,19.35
2022-08-17T02:14:03.195Z,19.44
2022-08-17T02:18:10.344Z,19.50
2022-08-17T02:22:12.325Z,19.58
2022-08-17T02:26:25.799Z,19.49
2022-08-17T02:30:59.370Z,19.45
2022-08-17T02:34:50.801Z,19.51
2022-08-17T02:38:52.866Z,19.55
2022-08-17T02:42:54.944Z,19.61
2022-08-17T02:46:57.116Z,19.51
2022-08-17T02:51:00.876Z,19.49
2022-08-17T02:55:03.093Z,19.53
2022-08-17T02:59:05.269Z,19.48
2022-08-17T03:03:08.925Z,19.45
2022-08-17T03:07:11.912Z,19.37
2022-08-17T03:11:14.482Z,19.16
2022-08-17T03:15:20.095Z,18.93
2022-08-17T03:19:22.146Z,18.77
2022-08-17T03:23:25.601Z,18.69
2022-08-17T03:27:27.759Z,18.76
2022-08-17T03:31:31.517Z,18.90
2022-08-17T03:35:36.498Z,19.02
2022-08-17T03:39:38.922Z,19.07
2022-08-17T03:43:41.033Z,19.13
2022-08-17T03:48:01.609Z,18.81
2022-08-17T03:52:22.578Z,18.71
2022-08-17T03:56:42.797Z,18.79
2022-08-17T04:00:46.064Z,18.89
2022-08-17T04:04:53.925Z,18.97
2022-08-17T04:08:55.854Z,18.93
2022-08-17T04:13:01.357Z,18.99
2022-08-17T04:17:03.645Z,19.05
2022-08-17T04:21:12.810Z,19.06
2022-08-17T04:25:19.852Z,19.01
2022-08-17T04:29:22.758Z,18.94
2022-08-17T04:33:26.907Z,18.93
2022-08-17T04:37:28.858Z,19.05
2022-08-17T04:41:49.293Z,18.96
2022-08-17T04:46:07.182Z,18.96
2022-08-17T04:50:09.666Z,19.03
2022-08-17T04:54:15.670Z,19.14
2022-08-17T04:58:17.784Z,19.22
2022-08-17T05:02:19.782Z,19.29
2022-08-17T05:06:22.156Z,19.34
2022-08-17T05:10:27.126Z,19.32
2022-08-17T05:14:33.767Z,19.48
2022-08-17T05:18:38.802Z,19.64
2022-08-17T05:22:51.458Z,19.80
2022-08-17T05:26:53.559Z,19.93
2022-08-17T05:31:01.344Z,20.09
2022-08-17T05:35:04.442Z,20.23
2022-08-17T05:39:06.715Z,20.26
2022-08-17T05:43:21.114Z,20.32
2022-08-17T05:47:25.227Z,20.38
2022-08-17T05:51:45.745Z,20.47
2022-08-17T05:55:50.726Z,20.59
2022-08-17T06:00:13.632Z,20.88
2022-08-17T06:04:22.302Z,21.07
2022-08-17T06:08:34.149Z,21.29
2022-08-17T06:13:01.132Z,21.49
2022-08-17T06:17:16.376Z,21.68
2022-08-17T06:21:23.747Z,21.83
2022-08-17T06:25:42.562Z,21.97
2022-08-17T06:30:13.789Z,22.11
2022-08-17T06:34:15.901Z,22.25
2022-08-17T06:38:43.844Z,22.40
2022-08-17T06:43:24.514Z,22.58
2022-08-17T06:47:35.071Z,22.74
2022-08-17T06:51:44.367Z,22.89
2022-08-17T06:56:08.932Z,23.02
2022-08-17T07:00:14.366Z,23.19
2022-08-17T07:04:24.417Z,23.37
2022-08-17T07:08:35.069Z,23.55
2022-08-17T07:12:40.442Z,23.67
2022-08-17T07:16:54.994Z,23.86
2022-08-17T07:21:04.727Z,23.97
2022-08-17T07:25:12.881Z,24.14
2022-08-17T07:29:19.962Z,24.23
2022-08-17T07:33:28.890Z,24.43
2022-08-17T07:37:33.408Z,24.64
2022-08-17T07:41:57.863Z,24.82
2022-08-17T07:47:05.677Z,25.16
2022-08-17T07:51:39.730Z,25.53
2022-08-17T07:55:42.090Z,25.69
2022-08-17T07:59:59.993Z,25.78
2022-08-17T08:04:49.877Z,25.94
2022-08-17T08:08:55.762Z,26.04
2022-08-17T08:13:16.691Z,26.20
2022-08-17T08:17:25.575Z,26.16
2022-08-17T08:21:49.274Z,26.20
2022-08-17T08:25:59.552Z,26.24
2022-08-17T08:30:14.509Z,26.34
2022-08-17T08:34:58.652Z,26.48
2022-08-17T08:38:59.327Z,26.58
2022-08-17T08:43:10.685Z,26.67
2022-08-17T08:47:40.336Z,26.81
2022-08-17T08:51:58.130Z,27.01
2022-08-17T08:56:09.923Z,27.13
2022-08-17T09:00:17.511Z,27.38
2022-08-17T09:04:25.405Z,27.61
2022-08-17T09:08:53.443Z,27.83
2022-08-17T09:13:09.877Z,27.93
2022-08-17T09:17:21.385Z,28.05
2022-08-17T09:21:33.817Z,28.22
2022-08-17T09:25:49.902Z,28.29
2022-08-17T09:29:58.471Z,28.56
2022-08-17T09:34:06.181Z,28.55
2022-08-17T09:39:00.315Z,28.84
2022-08-17T09:43:13.126Z,28.96
2022-08-17T09:47:30.652Z,29.11
2022-08-17T09:51:45.745Z,29.11
2022-08-17T09:56:03.151Z,29.22
2022-08-17T10:00:17.337Z,29.40
2022-08-17T10:04:43.733Z,29.46
2022-08-17T10:08:51.913Z,29.58
2022-08-17T10:13:09.730Z,29.76
2022-08-17T10:17:24.748Z,29.88
2022-08-17T10:21:45.331Z,30.06
2022-08-17T10:26:05.069Z,30.13
2022-08-17T10:30:10.298Z,30.18
2022-08-17T10:34:38.819Z,30.11
2022-08-17T10:38:59.137Z,30.06
2022-08-17T10:43:20.549Z,30.13
2022-08-17T10:47:26.994Z,30.37
2022-08-17T10:51:38.295Z,30.53
2022-08-17T10:56:09.080Z,30.54
2022-08-17T11:00:25.554Z,30.67
2022-08-17T11:04:53.788Z,30.89
2022-08-17T11:09:07.893Z,30.94
2022-08-17T11:13:38.756Z,30.72
2022-08-17T11:18:01.579Z,30.87
2022-08-17T11:22:18.988Z,31.19
2022-08-17T11:26:32.472Z,31.44
2022-08-17T11:30:48.789Z,31.54
2022-08-17T11:35:06.978Z,31.66
2022-08-17T11:39:18.074Z,31.64
2022-08-17T11:43:25.443Z,31.67
2022-08-17T11:48:28.699Z,32.04
2022-08-17T11:52:57.556Z,31.85
2022-08-17T11:57:21.812Z,31.94
2022-08-17T12:01:24.303Z,32.05
2022-08-17T12:05:31.659Z,32.20
2022-08-17T12:09:39.291Z,32.24
2022-08-17T12:13:54.264Z,32.53
2022-08-17T12:17:57.294Z,32.62
2022-08-17T12:22:25.454Z,32.73
2022-08-17T12:26:33.472Z,32.74
2022-08-17T12:30:36.403Z,33.01
2022-08-17T12:34:40.632Z,33.13
2022-08-17T12:38:54.223Z,33.19
2022-08-17T12:43:01.213Z,33.64
2022-08-17T12:47:21.014Z,33.65
2022-08-17T12:51:24.245Z,33.19
2022-08-17T12:55:26.643Z,33.23
2022-08-17T12:59:39.703Z,33.47
2022-08-17T13:03:51.053Z,33.24
2022-08-17T13:07:54.840Z,33.09
2022-08-17T13:12:00.294Z,33.01
2022-08-17T13:16:06.658Z,32.96
2022-08-17T13:20:14.860Z,33.11
2022-08-17T13:24:37.937Z,33.28
2022-08-17T13:28:51.767Z,33.28
2022-08-17T13:32:55.901Z,33.57
2022-08-17T13:37:29.929Z,33.74
2022-08-17T13:41:36.530Z,34.02
2022-08-17T13:45:50.765Z,33.96
2022-08-17T13:49:55.318Z,33.70
2022-08-17T13:54:01.057Z,33.77
2022-08-17T13:58:07.429Z,34.27
2022-08-17T14:02:11.312Z,34.35
2022-08-17T14:06:13.347Z,34.59
2022-08-17T14:10:36.731Z,34.47
2022-08-17T14:14:40.818Z,34.79
2022-08-17T14:18:56.310Z,35.09
2022-08-17T14:22:59.626Z,35.07
2022-08-17T14:27:03.634Z,35.38
2022-08-17T14:31:10.624Z,35.60
2022-08-17T14:35:14.658Z,35.44
2022-08-17T14:39:18.166Z,35.16
2022-08-17T14:43:21.039Z,35.23
2022-08-17T14:47:23.078Z,35.08
2022-08-17T14:51:28.881Z,35.07
2022-08-17T14:55:31.202Z,35.38
2022-08-17T14:59:33.818Z,35.75
2022-08-17T15:03:35.975Z,36.04
2022-08-17T15:07:37.957Z,36.22
2022-08-17T15:11:40.431Z,36.41
2022-08-17T15:15:42.399Z,36.67
2022-08-17T15:19:45.126Z,36.98
2022-08-17T15:23:47.880Z,36.35
2022-08-17T15:27:50.173Z,36.65
2022-08-17T15:31:53.596Z,36.84
2022-08-17T15:36:02.083Z,36.49
2022-08-17T15:40:05.591Z,36.62
2022-08-17T15:44:07.843Z,37.30
2022-08-17T15:48:09.987Z,37.37
2022-08-17T15:52:30.368Z,37.78
2022-08-17T15:56:32.836Z,38.85
2022-08-17T16:00:52.956Z,40.26
2022-08-17T16:05:12.056Z,40.28
2022-08-17T16:09:16.342Z,41.06
2022-08-17T16:13:19.327Z,41.40
2022-08-17T16:17:38.824Z,41.38
2022-08-17T16:21:43.220Z,40.54
2022-08-17T16:25:53.157Z,40.90
2022-08-17T16:29:56.111Z,41.06
2022-08-17T16:34:16.837Z,40.98
2022-08-17T16:38:22.487Z,40.52
2022-08-17T16:42:29.232Z,40.13
2022-08-17T16:46:31.608Z,40.23
2022-08-17T16:50:33.881Z,40.20
2022-08-17T16:54:39.530Z,39.98
2022-08-17T16:58:42.222Z,39.79
2022-08-17T17:02:47.518Z,39.36
2022-08-17T17:07:01.250Z,38.73
2022-08-17T17:11:10.371Z,38.21
2022-08-17T17:15:12.785Z,37.87
2022-08-17T17:19:38.506Z,37.38
2022-08-17T17:23:55.309Z,37.05
2022-08-17T17:28:19.203Z,36.63
2022-08-17T17:32:44.676Z,35.98
2022-08-17T17:36:56.519Z,35.46
2022-08-17T17:41:07.540Z,35.04
2022-08-17T17:45:22.257Z,34.53
2022-08-17T17:49:28.514Z,33.95
2022-08-17T17:53:57.491Z,33.52
2022-08-17T17:58:33.649Z,32.61
2022-08-17T18:03:01.642Z,32.06
2022-08-17T18:07:09.087Z,31.86
2022-08-17T18:11:24.951Z,31.27
2022-08-17T18:15:37.064Z,30.42
2022-08-17T18:19:40.190Z,29.89
2022-08-17T18:23:52.566Z,29.30
2022-08-17T18:27:55.033Z,28.87
2022-08-17T18:32:28.795Z,28.40
2022-08-17T18:36:36.299Z,28.09
2022-08-17T18:40:39.272Z,27.98
2022-08-17T18:44:41.622Z,27.87
2022-08-17T18:48:59.041Z,28.05
2022-08-17T18:53:30.332Z,28.11
2022-08-17T18:57:40.668Z,27.95
2022-08-17T19:01:59.873Z,27.81
2022-08-17T19:06:25.668Z,27.68
2022-08-17T19:10:45.837Z,27.47
2022-08-17T19:14:53.588Z,27.49
2022-08-17T19:19:39.762Z,27.46
2022-08-17T19:23:53.841Z,27.31
2022-08-17T19:28:22.982Z,27.15
2022-08-17T19:32:30.580Z,27.14
2022-08-17T19:36:44.510Z,27.19
2022-08-17T19:41:02.706Z,27.21
2022-08-17T19:45:07.702Z,27.03
2022-08-17T19:49:33.770Z,26.94
2022-08-17T19:54:04.945Z,26.91
2022-08-17T19:58:11.051Z,26.80
2022-08-17T20:02:54.446Z,26.73
2022-08-17T20:07:02.099Z,26.84
2022-08-17T20:11:18.338Z,26.88
2022-08-17T20:15:30.090Z,26.81
2022-08-17T20:19:38.676Z,26.53
2022-08-17T20:24:01.861Z,26.30
2022-08-17T20:28:24.364Z,26.24
2022-08-17T20:32:29.808Z,26.24
2022-08-17T20:36:36.882Z,26.32
2022-08-17T20:40:40.633Z,26.29
2022-08-17T20:44:43.351Z,26.30
2022-08-17T20:48:48.490Z,26.29
2022-08-17T20:52:55.193Z,26.26
2022-08-17T20:57:00.441Z,26.23
2022-08-17T21:01:16.263Z,26.24
2022-08-17T21:05:45.438Z,26.21
2022-08-17T21:10:20.319Z,25.88
2022-08-17T21:14:31.459Z,25.78
2022-08-17T21:18:51.510Z,25.76
2022-08-17T21:23:02.464Z,25.64
2022-08-17T21:27:38.451Z,25.61
2022-08-17T21:31:45.436Z,25.58
2022-08-17T21:35:49.596Z,25.51
2022-08-17T21:40:10.009Z,25.47
2022-08-17T21:44:27.813Z,25.53
2022-08-17T21:48:43.103Z,25.48
2022-08-17T21:52:46.392Z,25.51
2022-08-17T21:56:49.077Z,25.54
2022-08-17T22:01:29.669Z,25.52
2022-08-17T22:05:40.164Z,25.40
2022-08-17T22:09:45.414Z,25.32
2022-08-17T22:13:47.422Z,25.30
2022-08-17T22:17:51.082Z,25.31
2022-08-17T22:22:03.628Z,25.29
2022-08-17T22:26:12.513Z,25.10
2022-08-17T22:30:39.662Z,24.97
2022-08-17T22:34:41.598Z,24.69
2022-08-17T22:38:43.921Z,24.51
2022-08-17T22:42:48.092Z,24.62
2022-08-17T22:46:59.138Z,24.66
2022-08-17T22:51:12.829Z,24.52
2022-08-17T22:55:36.775Z,24.50
2022-08-17T22:59:55.628Z,24.48
2022-08-17T23:04:08.835Z,24.46
2022-08-17T23:08:12.800Z,24.42
2022-08-17T23:12:16.664Z,24.42
2022-08-17T23:16:20.468Z,24.29
2022-08-17T23:20:22.813Z,24.15
2022-08-17T23:24:30.066Z,23.98
2022-08-17T23:28:32.123Z,23.80
2022-08-17T23:32:36.756Z,23.73
2022-08-17T23:36:53.343Z,23.72
2022-08-17T23:40:56.092Z,23.47
2022-08-17T23:44:58.211Z,23.41
2022-08-17T23:49:00.850Z,23.10
2022-08-17T23:53:03.248Z,23.18
2022-08-17T23:57:05.972Z,23.29
